sensor_id;sensor_type;location;lat;lon;timestamp;P1;durP1;ratioP1;P2;durP2;ratioP2
59434;SDS011;45241;49.768;8.636;2023-08-08T00:00:00;3.47;;;1.25;;
59434;SDS011;45241;49.768;8.636;2023-08-08T00:02:26;5.07;;;1.50;;
59434;SDS011;45241;49.768;8.636;2023-08-08T00:04:52;2.50;;;1.30;;
59434;SDS011;45241;49.768;8.636;2023-08-08T00:07:18;2.28;;;1.30;;
59434;SDS011;45241;49.768;8.636;2023-08-08T00:09:43;2.10;;;1.58;;
59434;SDS011;45241;49.768;8.636;2023-08-08T00:12:08;4.70;;;1.70;;
59434;SDS011;45241;49.768;8.636;2023-08-08T00:14:34;3.22;;;1.48;;
59434;SDS011;45241;49.768;8.636;2023-08-08T00:16:59;2.92;;;1.27;;
59434;SDS011;45241;49.768;8.636;2023-08-08T00:19:24;1.63;;;1.40;;
59434;SDS011;45241;49.768;8.636;2023-08-08T00:21:50;2.65;;;1.27;;
59434;SDS011;45241;49.768;8.636;2023-08-08T00:24:15;3.28;;;1.38;;
59434;SDS011;45241;49.768;8.636;2023-08-08T00:26:40;1.85;;;1.50;;
59434;SDS011;45241;49.768;8.636;2023-08-08T00:29:05;2.35;;;1.38;;
59434;SDS011;45241;49.768;8.636;2023-08-08T00:31:31;3.22;;;1.40;;
59434;SDS011;45241;49.768;8.636;2023-08-08T00:33:56;6.68;;;1.67;;
59434;SDS011;45241;49.768;8.636;2023-08-08T00:36:22;5.93;;;1.70;;
59434;SDS011;45241;49.768;8.636;2023-08-08T00:38:47;4.18;;;1.52;;
59434;SDS011;45241;49.768;8.636;2023-08-08T00:41:14;3.22;;;1.55;;
59434;SDS011;45241;49.768;8.636;2023-08-08T00:43:39;4.05;;;1.35;;
59434;SDS011;45241;49.768;8.636;2023-08-08T00:46:04;3.17;;;1.50;;
59434;SDS011;45241;49.768;8.636;2023-08-08T00:48:30;2.30;;;1.63;;
59434;SDS011;45241;49.768;8.636;2023-08-08T00:50:56;3.53;;;1.40;;
59434;SDS011;45241;49.768;8.636;2023-08-08T00:53:21;2.58;;;1.20;;
59434;SDS011;45241;49.768;8.636;2023-08-08T00:55:48;3.83;;;1.48;;
59434;SDS011;45241;49.768;8.636;2023-08-08T00:58:13;1.55;;;1.17;;
59434;SDS011;45241;49.768;8.636;2023-08-08T01:00:39;2.33;;;1.50;;
59434;SDS011;45241;49.768;8.636;2023-08-08T01:03:06;1.95;;;1.35;;
59434;SDS011;45241;49.768;8.636;2023-08-08T01:05:34;2.13;;;1.50;;
59434;SDS011;45241;49.768;8.636;2023-08-08T01:08:06;5.57;;;1.92;;
59434;SDS011;45241;49.768;8.636;2023-08-08T01:10:38;4.70;;;1.60;;
59434;SDS011;45241;49.768;8.636;2023-08-08T01:13:06;1.90;;;1.45;;
59434;SDS011;45241;49.768;8.636;2023-08-08T01:15:49;3.22;;;1.60;;
59434;SDS011;45241;49.768;8.636;2023-08-08T01:18:15;4.40;;;1.33;;
59434;SDS011;45241;49.768;8.636;2023-08-08T01:20:42;2.85;;;1.40;;
59434;SDS011;45241;49.768;8.636;2023-08-08T01:25:43;4.00;;;1.40;;
59434;SDS011;45241;49.768;8.636;2023-08-08T01:28:11;3.13;;;1.38;;
59434;SDS011;45241;49.768;8.636;2023-08-08T01:30:36;2.78;;;1.58;;
59434;SDS011;45241;49.768;8.636;2023-08-08T01:33:02;1.83;;;1.23;;
59434;SDS011;45241;49.768;8.636;2023-08-08T01:35:29;2.42;;;1.40;;
59434;SDS011;45241;49.768;8.636;2023-08-08T01:38:00;3.45;;;1.42;;
59434;SDS011;45241;49.768;8.636;2023-08-08T01:40:33;3.58;;;1.48;;
59434;SDS011;45241;49.768;8.636;2023-08-08T01:43:00;2.15;;;1.40;;
59434;SDS011;45241;49.768;8.636;2023-08-08T01:45:26;2.75;;;1.30;;
59434;SDS011;45241;49.768;8.636;2023-08-08T01:47:52;2.70;;;1.40;;
59434;SDS011;45241;49.768;8.636;2023-08-08T01:50:18;4.30;;;1.45;;
59434;SDS011;45241;49.768;8.636;2023-08-08T01:52:43;2.70;;;1.33;;
59434;SDS011;45241;49.768;8.636;2023-08-08T01:55:09;5.93;;;1.63;;
59434;SDS011;45241;49.768;8.636;2023-08-08T01:57:34;3.10;;;1.40;;
59434;SDS011;45241;49.768;8.636;2023-08-08T02:00:00;3.58;;;1.30;;
59434;SDS011;45241;49.768;8.636;2023-08-08T02:02:25;3.08;;;1.60;;
59434;SDS011;45241;49.768;8.636;2023-08-08T02:04:50;2.50;;;1.55;;
59434;SDS011;45241;49.768;8.636;2023-08-08T02:07:16;4.53;;;1.40;;
59434;SDS011;45241;49.768;8.636;2023-08-08T02:09:41;6.05;;;1.67;;
59434;SDS011;45241;49.768;8.636;2023-08-08T02:12:07;3.55;;;1.70;;
59434;SDS011;45241;49.768;8.636;2023-08-08T02:14:32;4.53;;;1.58;;
59434;SDS011;45241;49.768;8.636;2023-08-08T02:16:57;5.45;;;1.63;;
59434;SDS011;45241;49.768;8.636;2023-08-08T02:19:23;2.22;;;1.42;;
59434;SDS011;45241;49.768;8.636;2023-08-08T02:21:48;5.18;;;1.48;;
59434;SDS011;45241;49.768;8.636;2023-08-08T02:24:13;2.42;;;1.30;;
59434;SDS011;45241;49.768;8.636;2023-08-08T02:26:39;2.72;;;1.55;;
59434;SDS011;45241;49.768;8.636;2023-08-08T02:29:04;3.33;;;1.63;;
59434;SDS011;45241;49.768;8.636;2023-08-08T02:31:30;4.65;;;1.45;;
59434;SDS011;45241;49.768;8.636;2023-08-08T02:33:55;2.10;;;1.20;;
59434;SDS011;45241;49.768;8.636;2023-08-08T02:36:20;2.92;;;1.48;;
59434;SDS011;45241;49.768;8.636;2023-08-08T02:38:46;2.25;;;1.52;;
59434;SDS011;45241;49.768;8.636;2023-08-08T02:41:11;3.70;;;1.60;;
59434;SDS011;45241;49.768;8.636;2023-08-08T02:43:36;3.92;;;1.70;;
59434;SDS011;45241;49.768;8.636;2023-08-08T02:46:02;2.88;;;1.48;;
59434;SDS011;45241;49.768;8.636;2023-08-08T02:48:28;3.22;;;1.67;;
59434;SDS011;45241;49.768;8.636;2023-08-08T02:50:55;3.40;;;1.73;;
59434;SDS011;45241;49.768;8.636;2023-08-08T02:53:20;3.15;;;1.55;;
59434;SDS011;45241;49.768;8.636;2023-08-08T02:55:45;5.13;;;1.65;;
59434;SDS011;45241;49.768;8.636;2023-08-08T02:58:12;2.83;;;1.35;;
59434;SDS011;45241;49.768;8.636;2023-08-08T03:00:37;4.63;;;1.73;;
59434;SDS011;45241;49.768;8.636;2023-08-08T03:03:02;3.05;;;1.80;;
59434;SDS011;45241;49.768;8.636;2023-08-08T03:05:28;6.13;;;1.70;;
59434;SDS011;45241;49.768;8.636;2023-08-08T03:07:53;2.55;;;1.40;;
59434;SDS011;45241;49.768;8.636;2023-08-08T03:10:18;3.90;;;1.50;;
59434;SDS011;45241;49.768;8.636;2023-08-08T03:12:44;3.22;;;1.50;;
59434;SDS011;45241;49.768;8.636;2023-08-08T03:15:09;2.50;;;1.23;;
59434;SDS011;45241;49.768;8.636;2023-08-08T03:17:35;2.03;;;1.40;;
59434;SDS011;45241;49.768;8.636;2023-08-08T03:20:01;1.85;;;1.45;;
59434;SDS011;45241;49.768;8.636;2023-08-08T03:22:27;3.45;;;1.52;;
59434;SDS011;45241;49.768;8.636;2023-08-08T03:24:53;2.25;;;1.40;;
59434;SDS011;45241;49.768;8.636;2023-08-08T03:27:18;4.30;;;1.60;;
59434;SDS011;45241;49.768;8.636;2023-08-08T03:29:43;3.47;;;1.50;;
59434;SDS011;45241;49.768;8.636;2023-08-08T03:32:08;3.08;;;1.92;;
59434;SDS011;45241;49.768;8.636;2023-08-08T03:34:34;2.25;;;1.67;;
59434;SDS011;45241;49.768;8.636;2023-08-08T03:36:59;4.15;;;1.55;;
59434;SDS011;45241;49.768;8.636;2023-08-08T03:39:24;3.80;;;2.08;;
59434;SDS011;45241;49.768;8.636;2023-08-08T03:41:50;3.85;;;1.60;;
59434;SDS011;45241;49.768;8.636;2023-08-08T03:44:15;2.70;;;1.70;;
59434;SDS011;45241;49.768;8.636;2023-08-08T03:46:40;3.65;;;1.48;;
59434;SDS011;45241;49.768;8.636;2023-08-08T03:49:06;3.15;;;1.40;;
59434;SDS011;45241;49.768;8.636;2023-08-08T03:51:31;4.45;;;1.77;;
59434;SDS011;45241;49.768;8.636;2023-08-08T03:53:56;4.65;;;1.60;;
59434;SDS011;45241;49.768;8.636;2023-08-08T03:56:22;3.85;;;1.70;;
59434;SDS011;45241;49.768;8.636;2023-08-08T03:58:47;5.10;;;1.73;;
59434;SDS011;45241;49.768;8.636;2023-08-08T04:01:12;6.38;;;1.65;;
59434;SDS011;45241;49.768;8.636;2023-08-08T04:03:38;3.42;;;1.50;;
59434;SDS011;45241;49.768;8.636;2023-08-08T04:06:03;2.72;;;1.60;;
59434;SDS011;45241;49.768;8.636;2023-08-08T04:08:28;4.60;;;1.50;;
59434;SDS011;45241;49.768;8.636;2023-08-08T04:10:54;3.03;;;1.50;;
59434;SDS011;45241;49.768;8.636;2023-08-08T04:13:20;4.68;;;1.73;;
59434;SDS011;45241;49.768;8.636;2023-08-08T04:15:45;3.30;;;1.48;;
59434;SDS011;45241;49.768;8.636;2023-08-08T04:18:10;4.10;;;1.67;;
59434;SDS011;45241;49.768;8.636;2023-08-08T04:20:36;2.22;;;1.45;;
59434;SDS011;45241;49.768;8.636;2023-08-08T04:23:01;2.90;;;1.63;;
59434;SDS011;45241;49.768;8.636;2023-08-08T04:25:27;4.03;;;1.70;;
59434;SDS011;45241;49.768;8.636;2023-08-08T04:27:53;3.50;;;1.55;;
59434;SDS011;45241;49.768;8.636;2023-08-08T04:30:18;3.65;;;1.35;;
59434;SDS011;45241;49.768;8.636;2023-08-08T04:32:44;5.35;;;1.50;;
59434;SDS011;45241;49.768;8.636;2023-08-08T04:35:10;4.68;;;1.52;;
59434;SDS011;45241;49.768;8.636;2023-08-08T04:37:35;9.65;;;1.70;;
59434;SDS011;45241;49.768;8.636;2023-08-08T04:40:01;3.67;;;1.83;;
59434;SDS011;45241;49.768;8.636;2023-08-08T04:42:26;3.75;;;1.55;;
59434;SDS011;45241;49.768;8.636;2023-08-08T04:44:51;2.70;;;1.70;;
59434;SDS011;45241;49.768;8.636;2023-08-08T04:47:17;4.90;;;1.70;;
59434;SDS011;45241;49.768;8.636;2023-08-08T04:49:42;3.13;;;1.65;;
59434;SDS011;45241;49.768;8.636;2023-08-08T04:52:07;7.22;;;1.40;;
59434;SDS011;45241;49.768;8.636;2023-08-08T04:54:33;3.47;;;1.65;;
59434;SDS011;45241;49.768;8.636;2023-08-08T04:56:58;3.72;;;1.50;;
59434;SDS011;45241;49.768;8.636;2023-08-08T04:59:23;3.67;;;1.40;;
59434;SDS011;45241;49.768;8.636;2023-08-08T05:01:48;2.58;;;1.50;;
59434;SDS011;45241;49.768;8.636;2023-08-08T05:04:14;3.80;;;1.50;;
59434;SDS011;45241;49.768;8.636;2023-08-08T05:06:39;2.10;;;1.35;;
59434;SDS011;45241;49.768;8.636;2023-08-08T05:09:04;3.35;;;1.50;;
59434;SDS011;45241;49.768;8.636;2023-08-08T05:11:29;2.75;;;1.45;;
59434;SDS011;45241;49.768;8.636;2023-08-08T05:13:55;4.88;;;1.90;;
59434;SDS011;45241;49.768;8.636;2023-08-08T05:16:20;2.92;;;1.67;;
59434;SDS011;45241;49.768;8.636;2023-08-08T05:18:45;5.10;;;1.73;;
59434;SDS011;45241;49.768;8.636;2023-08-08T05:21:11;3.50;;;1.90;;
59434;SDS011;45241;49.768;8.636;2023-08-08T05:23:36;2.45;;;1.58;;
59434;SDS011;45241;49.768;8.636;2023-08-08T05:26:02;1.98;;;1.50;;
59434;SDS011;45241;49.768;8.636;2023-08-08T05:28:28;2.47;;;1.70;;
59434;SDS011;45241;49.768;8.636;2023-08-08T05:30:53;4.35;;;1.77;;
59434;SDS011;45241;49.768;8.636;2023-08-08T05:33:19;3.65;;;2.08;;
59434;SDS011;45241;49.768;8.636;2023-08-08T05:35:44;5.07;;;1.80;;
59434;SDS011;45241;49.768;8.636;2023-08-08T05:38:10;3.80;;;1.98;;
59434;SDS011;45241;49.768;8.636;2023-08-08T05:40:35;3.70;;;1.70;;
59434;SDS011;45241;49.768;8.636;2023-08-08T05:43:01;3.72;;;1.98;;
59434;SDS011;45241;49.768;8.636;2023-08-08T05:45:29;2.10;;;1.38;;
59434;SDS011;45241;49.768;8.636;2023-08-08T05:47:54;5.18;;;1.90;;
59434;SDS011;45241;49.768;8.636;2023-08-08T05:50:21;3.58;;;1.98;;
59434;SDS011;45241;49.768;8.636;2023-08-08T05:52:46;3.88;;;1.65;;
59434;SDS011;45241;49.768;8.636;2023-08-08T05:55:12;3.38;;;1.70;;
59434;SDS011;45241;49.768;8.636;2023-08-08T05:57:37;3.85;;;1.73;;
59434;SDS011;45241;49.768;8.636;2023-08-08T06:00:03;4.32;;;1.90;;
59434;SDS011;45241;49.768;8.636;2023-08-08T06:02:30;3.90;;;2.00;;
59434;SDS011;45241;49.768;8.636;2023-08-08T06:04:55;3.80;;;1.80;;
59434;SDS011;45241;49.768;8.636;2023-08-08T06:07:21;3.60;;;1.77;;
59434;SDS011;45241;49.768;8.636;2023-08-08T06:09:46;4.53;;;2.00;;
59434;SDS011;45241;49.768;8.636;2023-08-08T06:12:11;4.30;;;1.92;;
59434;SDS011;45241;49.768;8.636;2023-08-08T06:14:37;4.53;;;1.80;;
59434;SDS011;45241;49.768;8.636;2023-08-08T06:17:02;3.10;;;2.22;;
59434;SDS011;45241;49.768;8.636;2023-08-08T06:19:28;4.40;;;2.08;;
59434;SDS011;45241;49.768;8.636;2023-08-08T06:21:53;3.25;;;1.55;;
59434;SDS011;45241;49.768;8.636;2023-08-08T06:24:18;3.25;;;1.73;;
59434;SDS011;45241;49.768;8.636;2023-08-08T06:26:43;5.50;;;2.33;;
59434;SDS011;45241;49.768;8.636;2023-08-08T06:29:09;3.33;;;1.80;;
59434;SDS011;45241;49.768;8.636;2023-08-08T06:31:34;4.35;;;1.65;;
59434;SDS011;45241;49.768;8.636;2023-08-08T06:33:59;5.78;;;1.90;;
59434;SDS011;45241;49.768;8.636;2023-08-08T06:36:25;3.17;;;1.90;;
59434;SDS011;45241;49.768;8.636;2023-08-08T06:38:50;2.55;;;1.83;;
59434;SDS011;45241;49.768;8.636;2023-08-08T06:41:15;6.88;;;1.77;;
59434;SDS011;45241;49.768;8.636;2023-08-08T06:43:41;4.72;;;1.80;;
59434;SDS011;45241;49.768;8.636;2023-08-08T06:46:06;4.10;;;1.90;;
59434;SDS011;45241;49.768;8.636;2023-08-08T06:48:31;2.75;;;1.80;;
59434;SDS011;45241;49.768;8.636;2023-08-08T06:50:57;3.92;;;1.70;;
59434;SDS011;45241;49.768;8.636;2023-08-08T06:53:22;4.25;;;1.70;;
59434;SDS011;45241;49.768;8.636;2023-08-08T06:55:48;3.80;;;1.77;;
59434;SDS011;45241;49.768;8.636;2023-08-08T06:58:13;3.35;;;1.60;;
59434;SDS011;45241;49.768;8.636;2023-08-08T07:00:38;4.10;;;1.55;;
59434;SDS011;45241;49.768;8.636;2023-08-08T07:03:04;4.03;;;2.22;;
59434;SDS011;45241;49.768;8.636;2023-08-08T07:05:30;3.08;;;2.00;;
59434;SDS011;45241;49.768;8.636;2023-08-08T07:07:55;5.18;;;1.60;;
59434;SDS011;45241;49.768;8.636;2023-08-08T07:10:21;2.85;;;1.25;;
59434;SDS011;45241;49.768;8.636;2023-08-08T07:12:46;7.25;;;1.50;;
59434;SDS011;45241;49.768;8.636;2023-08-08T07:15:11;5.68;;;1.83;;
59434;SDS011;45241;49.768;8.636;2023-08-08T07:17:37;4.40;;;1.67;;
59434;SDS011;45241;49.768;8.636;2023-08-08T07:20:03;2.15;;;1.65;;
59434;SDS011;45241;49.768;8.636;2023-08-08T07:22:30;3.55;;;1.25;;
59434;SDS011;45241;49.768;8.636;2023-08-08T07:24:55;2.63;;;1.35;;
59434;SDS011;45241;49.768;8.636;2023-08-08T07:27:21;2.38;;;1.40;;
59434;SDS011;45241;49.768;8.636;2023-08-08T07:29:47;3.58;;;1.35;;
59434;SDS011;45241;49.768;8.636;2023-08-08T07:32:12;3.20;;;1.50;;
59434;SDS011;45241;49.768;8.636;2023-08-08T07:34:37;3.88;;;1.40;;
59434;SDS011;45241;49.768;8.636;2023-08-08T07:37:02;2.67;;;1.40;;
59434;SDS011;45241;49.768;8.636;2023-08-08T07:39:28;3.35;;;1.58;;
59434;SDS011;45241;49.768;8.636;2023-08-08T07:41:54;2.72;;;1.65;;
59434;SDS011;45241;49.768;8.636;2023-08-08T07:44:19;2.65;;;1.30;;
59434;SDS011;45241;49.768;8.636;2023-08-08T07:46:45;2.97;;;1.40;;
59434;SDS011;45241;49.768;8.636;2023-08-08T07:49:10;2.55;;;1.40;;
59434;SDS011;45241;49.768;8.636;2023-08-08T07:51:35;3.10;;;1.48;;
59434;SDS011;45241;49.768;8.636;2023-08-08T07:54:00;4.45;;;1.60;;
59434;SDS011;45241;49.768;8.636;2023-08-08T07:56:26;6.35;;;2.22;;
59434;SDS011;45241;49.768;8.636;2023-08-08T07:58:51;5.60;;;1.58;;
59434;SDS011;45241;49.768;8.636;2023-08-08T08:01:17;3.95;;;1.88;;
59434;SDS011;45241;49.768;8.636;2023-08-08T08:03:43;7.45;;;1.90;;
59434;SDS011;45241;49.768;8.636;2023-08-08T08:06:08;4.50;;;1.48;;
59434;SDS011;45241;49.768;8.636;2023-08-08T08:08:34;2.83;;;1.20;;
59434;SDS011;45241;49.768;8.636;2023-08-08T08:10:59;1.75;;;1.20;;
59434;SDS011;45241;49.768;8.636;2023-08-08T08:13:26;2.38;;;1.05;;
59434;SDS011;45241;49.768;8.636;2023-08-08T08:15:51;2.38;;;1.00;;
59434;SDS011;45241;49.768;8.636;2023-08-08T08:18:16;3.33;;;0.93;;
59434;SDS011;45241;49.768;8.636;2023-08-08T08:20:42;2.45;;;0.88;;
59434;SDS011;45241;49.768;8.636;2023-08-08T08:23:09;2.05;;;0.90;;
59434;SDS011;45241;49.768;8.636;2023-08-08T08:25:34;2.00;;;0.80;;
59434;SDS011;45241;49.768;8.636;2023-08-08T08:28:00;2.38;;;0.77;;
59434;SDS011;45241;49.768;8.636;2023-08-08T08:30:25;3.47;;;0.80;;
59434;SDS011;45241;49.768;8.636;2023-08-08T08:32:52;1.42;;;0.80;;
59434;SDS011;45241;49.768;8.636;2023-08-08T08:35:17;4.10;;;0.70;;
59434;SDS011;45241;49.768;8.636;2023-08-08T08:37:43;1.88;;;0.70;;
59434;SDS011;45241;49.768;8.636;2023-08-08T08:40:09;3.53;;;0.82;;
59434;SDS011;45241;49.768;8.636;2023-08-08T08:42:35;2.25;;;0.80;;
59434;SDS011;45241;49.768;8.636;2023-08-08T08:45:01;1.00;;;0.82;;
59434;SDS011;45241;49.768;8.636;2023-08-08T08:47:28;1.08;;;0.70;;
59434;SDS011;45241;49.768;8.636;2023-08-08T08:49:55;2.42;;;0.82;;
59434;SDS011;45241;49.768;8.636;2023-08-08T08:52:22;2.03;;;0.80;;
59434;SDS011;45241;49.768;8.636;2023-08-08T08:54:48;3.03;;;0.95;;
59434;SDS011;45241;49.768;8.636;2023-08-08T08:57:13;3.92;;;0.80;;
59434;SDS011;45241;49.768;8.636;2023-08-08T08:59:39;4.18;;;0.88;;
59434;SDS011;45241;49.768;8.636;2023-08-08T09:02:04;1.85;;;0.70;;
59434;SDS011;45241;49.768;8.636;2023-08-08T09:04:31;1.73;;;0.82;;
59434;SDS011;45241;49.768;8.636;2023-08-08T09:06:57;1.60;;;0.77;;
59434;SDS011;45241;49.768;8.636;2023-08-08T09:09:23;2.60;;;1.00;;
59434;SDS011;45241;49.768;8.636;2023-08-08T09:11:49;1.67;;;0.70;;
59434;SDS011;45241;49.768;8.636;2023-08-08T09:14:22;1.90;;;0.90;;
59434;SDS011;45241;49.768;8.636;2023-08-08T09:16:49;1.17;;;0.82;;
59434;SDS011;45241;49.768;8.636;2023-08-08T09:19:18;4.28;;;1.08;;
59434;SDS011;45241;49.768;8.636;2023-08-08T09:21:43;1.98;;;0.90;;
59434;SDS011;45241;49.768;8.636;2023-08-08T09:24:09;2.08;;;1.10;;
59434;SDS011;45241;49.768;8.636;2023-08-08T09:26:34;3.30;;;0.85;;
59434;SDS011;45241;49.768;8.636;2023-08-08T09:29:00;2.33;;;1.05;;
59434;SDS011;45241;49.768;8.636;2023-08-08T09:31:26;2.05;;;0.90;;
59434;SDS011;45241;49.768;8.636;2023-08-08T09:33:59;2.78;;;0.82;;
59434;SDS011;45241;49.768;8.636;2023-08-08T09:36:25;1.77;;;0.80;;
59434;SDS011;45241;49.768;8.636;2023-08-08T09:38:51;4.18;;;1.02;;
59434;SDS011;45241;49.768;8.636;2023-08-08T09:41:18;3.03;;;0.90;;
59434;SDS011;45241;49.768;8.636;2023-08-08T09:43:45;2.08;;;0.70;;
59434;SDS011;45241;49.768;8.636;2023-08-08T09:46:10;2.08;;;0.80;;
59434;SDS011;45241;49.768;8.636;2023-08-08T09:48:35;4.05;;;0.90;;
59434;SDS011;45241;49.768;8.636;2023-08-08T09:51:04;1.38;;;0.73;;
59434;SDS011;45241;49.768;8.636;2023-08-08T09:53:31;1.83;;;0.70;;
59434;SDS011;45241;49.768;8.636;2023-08-08T09:55:57;2.20;;;1.00;;
59434;SDS011;45241;49.768;8.636;2023-08-08T09:58:25;1.95;;;0.75;;
59434;SDS011;45241;49.768;8.636;2023-08-08T10:00:51;2.97;;;0.98;;
59434;SDS011;45241;49.768;8.636;2023-08-08T10:03:17;1.13;;;0.70;;
59434;SDS011;45241;49.768;8.636;2023-08-08T10:05:43;2.83;;;0.75;;
59434;SDS011;45241;49.768;8.636;2023-08-08T10:08:09;1.80;;;0.85;;
59434;SDS011;45241;49.768;8.636;2023-08-08T10:10:35;3.08;;;0.80;;
59434;SDS011;45241;49.768;8.636;2023-08-08T10:13:05;2.53;;;0.95;;
59434;SDS011;45241;49.768;8.636;2023-08-08T10:15:32;3.55;;;1.10;;
59434;SDS011;45241;49.768;8.636;2023-08-08T10:17:57;3.05;;;0.95;;
59434;SDS011;45241;49.768;8.636;2023-08-08T10:20:26;1.63;;;1.05;;
59434;SDS011;45241;49.768;8.636;2023-08-08T10:22:52;2.57;;;1.07;;
59434;SDS011;45241;49.768;8.636;2023-08-08T10:27:49;3.85;;;1.33;;
59434;SDS011;45241;49.768;8.636;2023-08-08T10:30:14;2.75;;;1.00;;
59434;SDS011;45241;49.768;8.636;2023-08-08T10:32:41;3.67;;;0.70;;
59434;SDS011;45241;49.768;8.636;2023-08-08T10:35:13;2.53;;;1.00;;
59434;SDS011;45241;49.768;8.636;2023-08-08T10:37:39;3.17;;;0.90;;
59434;SDS011;45241;49.768;8.636;2023-08-08T10:40:06;2.45;;;1.05;;
59434;SDS011;45241;49.768;8.636;2023-08-08T10:42:32;1.50;;;0.90;;
59434;SDS011;45241;49.768;8.636;2023-08-08T10:45:08;1.10;;;0.85;;
59434;SDS011;45241;49.768;8.636;2023-08-08T10:47:36;3.70;;;1.10;;
59434;SDS011;45241;49.768;8.636;2023-08-08T10:52:52;3.28;;;1.40;;
59434;SDS011;45241;49.768;8.636;2023-08-08T10:57:52;3.05;;;0.80;;
59434;SDS011;45241;49.768;8.636;2023-08-08T11:00:20;1.88;;;1.00;;
59434;SDS011;45241;49.768;8.636;2023-08-08T11:02:47;2.05;;;0.90;;
59434;SDS011;45241;49.768;8.636;2023-08-08T11:05:13;3.15;;;0.90;;
59434;SDS011;45241;49.768;8.636;2023-08-08T11:07:39;1.25;;;0.82;;
59434;SDS011;45241;49.768;8.636;2023-08-08T11:10:04;3.15;;;1.10;;
59434;SDS011;45241;49.768;8.636;2023-08-08T11:12:31;1.65;;;1.00;;
59434;SDS011;45241;49.768;8.636;2023-08-08T11:14:56;2.15;;;0.93;;
59434;SDS011;45241;49.768;8.636;2023-08-08T11:17:22;1.60;;;0.73;;
59434;SDS011;45241;49.768;8.636;2023-08-08T11:19:47;3.47;;;1.17;;
59434;SDS011;45241;49.768;8.636;2023-08-08T11:22:13;1.10;;;0.90;;
59434;SDS011;45241;49.768;8.636;2023-08-08T11:24:38;3.20;;;0.80;;
59434;SDS011;45241;49.768;8.636;2023-08-08T11:27:03;2.08;;;0.85;;
59434;SDS011;45241;49.768;8.636;2023-08-08T11:29:29;3.10;;;1.00;;
59434;SDS011;45241;49.768;8.636;2023-08-08T11:31:56;3.08;;;1.00;;
59434;SDS011;45241;49.768;8.636;2023-08-08T11:34:22;1.80;;;0.95;;
59434;SDS011;45241;49.768;8.636;2023-08-08T11:36:47;4.47;;;0.95;;
59434;SDS011;45241;49.768;8.636;2023-08-08T11:39:13;2.05;;;0.80;;
59434;SDS011;45241;49.768;8.636;2023-08-08T11:41:39;1.88;;;1.00;;
59434;SDS011;45241;49.768;8.636;2023-08-08T11:44:06;2.42;;;0.90;;
59434;SDS011;45241;49.768;8.636;2023-08-08T11:46:33;2.83;;;1.08;;
59434;SDS011;45241;49.768;8.636;2023-08-08T11:49:04;4.65;;;1.10;;
59434;SDS011;45241;49.768;8.636;2023-08-08T11:51:31;1.58;;;1.00;;
59434;SDS011;45241;49.768;8.636;2023-08-08T11:53:58;2.65;;;0.90;;
59434;SDS011;45241;49.768;8.636;2023-08-08T11:56:24;2.47;;;0.90;;
59434;SDS011;45241;49.768;8.636;2023-08-08T11:58:50;3.78;;;0.90;;
59434;SDS011;45241;49.768;8.636;2023-08-08T12:01:25;2.20;;;0.75;;
59434;SDS011;45241;49.768;8.636;2023-08-08T12:03:51;2.95;;;1.00;;
59434;SDS011;45241;49.768;8.636;2023-08-08T12:06:17;2.67;;;0.80;;
59434;SDS011;45241;49.768;8.636;2023-08-08T12:08:43;2.85;;;1.00;;
59434;SDS011;45241;49.768;8.636;2023-08-08T12:11:10;2.28;;;0.85;;
59434;SDS011;45241;49.768;8.636;2023-08-08T12:13:37;1.15;;;0.98;;
59434;SDS011;45241;49.768;8.636;2023-08-08T12:16:05;2.50;;;0.85;;
59434;SDS011;45241;49.768;8.636;2023-08-08T12:18:34;2.72;;;1.00;;
59434;SDS011;45241;49.768;8.636;2023-08-08T12:21:02;5.70;;;1.00;;
59434;SDS011;45241;49.768;8.636;2023-08-08T12:23:27;3.58;;;0.93;;
59434;SDS011;45241;49.768;8.636;2023-08-08T12:25:53;2.55;;;0.90;;
59434;SDS011;45241;49.768;8.636;2023-08-08T12:28:18;2.08;;;0.82;;
59434;SDS011;45241;49.768;8.636;2023-08-08T12:30:44;2.05;;;0.77;;
59434;SDS011;45241;49.768;8.636;2023-08-08T12:33:09;3.30;;;1.08;;
59434;SDS011;45241;49.768;8.636;2023-08-08T12:35:34;1.98;;;0.88;;
59434;SDS011;45241;49.768;8.636;2023-08-08T12:38:00;2.95;;;0.90;;
59434;SDS011;45241;49.768;8.636;2023-08-08T12:40:25;2.08;;;0.85;;
59434;SDS011;45241;49.768;8.636;2023-08-08T12:42:50;1.40;;;0.80;;
59434;SDS011;45241;49.768;8.636;2023-08-08T12:45:16;1.40;;;0.85;;
59434;SDS011;45241;49.768;8.636;2023-08-08T12:47:42;2.08;;;0.93;;
59434;SDS011;45241;49.768;8.636;2023-08-08T12:50:08;3.30;;;0.70;;
59434;SDS011;45241;49.768;8.636;2023-08-08T12:52:34;3.22;;;0.85;;
59434;SDS011;45241;49.768;8.636;2023-08-08T12:54:59;1.92;;;0.90;;
59434;SDS011;45241;49.768;8.636;2023-08-08T12:57:24;2.38;;;0.98;;
59434;SDS011;45241;49.768;8.636;2023-08-08T12:59:50;2.10;;;0.77;;
59434;SDS011;45241;49.768;8.636;2023-08-08T13:02:16;1.75;;;0.88;;
59434;SDS011;45241;49.768;8.636;2023-08-08T13:04:41;1.25;;;0.75;;
59434;SDS011;45241;49.768;8.636;2023-08-08T13:07:06;2.15;;;0.70;;
59434;SDS011;45241;49.768;8.636;2023-08-08T13:09:32;1.75;;;0.77;;
59434;SDS011;45241;49.768;8.636;2023-08-08T13:11:58;1.00;;;0.70;;
59434;SDS011;45241;49.768;8.636;2023-08-08T13:14:23;1.52;;;0.73;;
59434;SDS011;45241;49.768;8.636;2023-08-08T13:16:48;2.60;;;1.00;;
59434;SDS011;45241;49.768;8.636;2023-08-08T13:19:14;1.48;;;0.90;;
59434;SDS011;45241;49.768;8.636;2023-08-08T13:21:44;1.63;;;0.82;;
59434;SDS011;45241;49.768;8.636;2023-08-08T13:24:09;2.40;;;0.95;;
59434;SDS011;45241;49.768;8.636;2023-08-08T13:26:37;1.65;;;0.88;;
59434;SDS011;45241;49.768;8.636;2023-08-08T13:29:03;2.10;;;0.90;;
59434;SDS011;45241;49.768;8.636;2023-08-08T13:31:28;3.50;;;0.75;;
59434;SDS011;45241;49.768;8.636;2023-08-08T13:33:53;2.53;;;0.90;;
59434;SDS011;45241;49.768;8.636;2023-08-08T13:36:19;2.70;;;0.80;;
59434;SDS011;45241;49.768;8.636;2023-08-08T13:38:44;2.22;;;0.90;;
59434;SDS011;45241;49.768;8.636;2023-08-08T13:41:10;1.70;;;0.77;;
59434;SDS011;45241;49.768;8.636;2023-08-08T13:43:35;1.85;;;0.75;;
59434;SDS011;45241;49.768;8.636;2023-08-08T13:46:00;1.17;;;0.90;;
59434;SDS011;45241;49.768;8.636;2023-08-08T13:48:27;2.05;;;0.85;;
59434;SDS011;45241;49.768;8.636;2023-08-08T13:50:52;2.08;;;0.90;;
59434;SDS011;45241;49.768;8.636;2023-08-08T13:53:18;4.72;;;1.00;;
59434;SDS011;45241;49.768;8.636;2023-08-08T13:55:43;2.75;;;0.80;;
59434;SDS011;45241;49.768;8.636;2023-08-08T13:58:09;3.10;;;0.88;;
59434;SDS011;45241;49.768;8.636;2023-08-08T14:00:35;2.80;;;0.75;;
59434;SDS011;45241;49.768;8.636;2023-08-08T14:03:01;2.83;;;0.95;;
59434;SDS011;45241;49.768;8.636;2023-08-08T14:05:27;1.13;;;0.80;;
59434;SDS011;45241;49.768;8.636;2023-08-08T14:07:53;2.40;;;0.77;;
59434;SDS011;45241;49.768;8.636;2023-08-08T14:10:19;1.63;;;0.90;;
59434;SDS011;45241;49.768;8.636;2023-08-08T14:12:44;1.80;;;0.80;;
59434;SDS011;45241;49.768;8.636;2023-08-08T14:15:10;1.63;;;0.70;;
59434;SDS011;45241;49.768;8.636;2023-08-08T14:17:35;2.65;;;0.90;;
59434;SDS011;45241;49.768;8.636;2023-08-08T14:20:01;3.30;;;1.00;;
59434;SDS011;45241;49.768;8.636;2023-08-08T14:22:27;1.98;;;0.82;;
59434;SDS011;45241;49.768;8.636;2023-08-08T14:24:52;3.35;;;0.93;;
59434;SDS011;45241;49.768;8.636;2023-08-08T14:27:17;2.40;;;0.80;;
59434;SDS011;45241;49.768;8.636;2023-08-08T14:29:43;2.90;;;1.00;;
59434;SDS011;45241;49.768;8.636;2023-08-08T14:32:08;2.42;;;0.77;;
59434;SDS011;45241;49.768;8.636;2023-08-08T14:34:33;3.40;;;0.70;;
59434;SDS011;45241;49.768;8.636;2023-08-08T14:37:00;1.73;;;1.00;;
59434;SDS011;45241;49.768;8.636;2023-08-08T14:39:26;1.67;;;0.80;;
59434;SDS011;45241;49.768;8.636;2023-08-08T14:41:52;2.88;;;1.13;;
59434;SDS011;45241;49.768;8.636;2023-08-08T14:44:17;0.80;;;0.70;;
59434;SDS011;45241;49.768;8.636;2023-08-08T14:46:43;1.17;;;0.95;;
59434;SDS011;45241;49.768;8.636;2023-08-08T14:49:08;3.13;;;0.98;;